Augusta, Maine
Current Conditions -  °F | °C
As of 12:53 AM on Wednesday 26 Nov 2014 (Local Time) from KAUG Reporting Station
Clear Clear  
Wind Chill:   Ceiling: Unl
Heat Index:   Visibility: 10mi
Dew Point: -4°   Wind: 5mph
Humidity: 57%   Direction: 210°SSW
Pressure: 30.06"   Gusts: NA
Location:  44.32°N, 69.78°W
Report Text: KAUG 260553Z AUTO 21004KT 10SM CLR 04/M04 A3006 RMK AO2 SLP182 T00391039 10094 20039 51020
Loading
Personal Weather Stations






























Interactive Weather Map New forecast layout! Learn more

10-Day Weather Forecast

Advertisements
Track Severe Weather on mobile